createdAt,value
2022-09-07T00:00:53.652Z,16.47
2022-09-07T00:05:55.965Z,16.38
2022-09-07T00:11:00.197Z,16.19
2022-09-07T00:16:06.557Z,16.20
2022-09-07T00:21:10.220Z,16.08
2022-09-07T00:26:14.447Z,16.00
2022-09-07T00:31:20.456Z,15.94
2022-09-07T00:36:22.785Z,15.81
2022-09-07T00:41:24.761Z,15.62
2022-09-07T00:46:30.228Z,15.44
2022-09-07T00:51:36.910Z,15.44
2022-09-07T00:56:43.554Z,15.34
2022-09-07T01:01:47.251Z,15.36
2022-09-07T01:06:49.796Z,15.30
2022-09-07T01:11:55.364Z,15.38
2022-09-07T01:17:09.567Z,15.43
2022-09-07T01:22:34.571Z,15.46
2022-09-07T01:28:04.461Z,15.49
2022-09-07T01:33:28.403Z,15.38
2022-09-07T01:38:36.269Z,15.07
2022-09-07T01:43:47.187Z,14.90
2022-09-07T01:48:52.529Z,14.77
2022-09-07T01:53:58.261Z,14.50
2022-09-07T01:59:04.342Z,14.43
2022-09-07T02:04:10.721Z,14.18
2022-09-07T02:09:19.104Z,14.13
2022-09-07T02:14:26.172Z,14.27
2022-09-07T02:19:33.941Z,14.29
2022-09-07T02:24:39.829Z,14.05
2022-09-07T02:29:43.692Z,13.80
2022-09-07T02:34:46.008Z,13.91
2022-09-07T02:39:48.163Z,13.78
2022-09-07T02:44:51.846Z,13.68
2022-09-07T02:50:07.586Z,13.47
2022-09-07T02:55:19.408Z,13.35
2022-09-07T03:00:23.049Z,13.19
2022-09-07T03:05:33.144Z,13.14
2022-09-07T03:10:38.126Z,13.15
2022-09-07T03:15:41.719Z,13.26
2022-09-07T03:20:43.867Z,13.35
2022-09-07T03:25:47.567Z,13.38
2022-09-07T03:30:51.400Z,13.43
2022-09-07T03:36:01.310Z,13.48
2022-09-07T03:41:05.650Z,13.39
2022-09-07T03:46:09.937Z,13.23
2022-09-07T03:51:13.456Z,13.13
2022-09-07T03:56:18.456Z,13.16
2022-09-07T04:01:24.925Z,13.18
2022-09-07T04:06:26.785Z,13.17
2022-09-07T04:11:28.854Z,13.12
2022-09-07T04:16:32.434Z,13.13
2022-09-07T04:21:34.440Z,13.07
2022-09-07T04:26:36.634Z,13.12
2022-09-07T04:31:39.850Z,13.19
2022-09-07T04:36:42.011Z,13.19
2022-09-07T04:41:43.796Z,13.12
2022-09-07T04:46:47.827Z,13.16
2022-09-07T04:51:50.000Z,13.19
2022-09-07T04:56:51.894Z,13.40
2022-09-07T05:01:55.101Z,13.60
2022-09-07T05:06:56.885Z,13.68
2022-09-07T05:11:58.691Z,13.69
2022-09-07T05:17:02.075Z,13.79
2022-09-07T05:22:04.140Z,13.96
2022-09-07T05:27:06.459Z,14.19
2022-09-07T05:32:11.913Z,14.73
2022-09-07T05:37:14.042Z,15.15
2022-09-07T05:42:16.202Z,15.51
2022-09-07T05:47:19.736Z,16.31
2022-09-07T05:52:22.125Z,16.89
2022-09-07T05:57:23.914Z,17.20
2022-09-07T06:02:27.517Z,16.44
2022-09-07T06:07:29.542Z,16.29
2022-09-07T06:12:31.786Z,15.95
2022-09-07T06:17:35.039Z,16.02
2022-09-07T06:22:37.281Z,15.87
2022-09-07T06:27:39.032Z,15.89
2022-09-07T06:37:44.887Z,16.14
2022-09-07T06:42:46.782Z,16.44
2022-09-07T06:47:53.918Z,16.78
2022-09-07T06:58:19.030Z,17.17
2022-09-07T07:03:22.809Z,17.21
2022-09-07T07:08:26.783Z,17.66
2022-09-07T07:13:29.377Z,17.77
2022-09-07T07:18:33.621Z,17.73
2022-09-07T07:23:36.046Z,17.65
2022-09-07T07:34:02.166Z,18.06
2022-09-07T07:39:04.527Z,18.28
2022-09-07T07:44:06.315Z,18.46
2022-09-07T07:49:10.199Z,18.58
2022-09-07T07:54:11.929Z,18.86
2022-09-07T07:59:15.786Z,19.22
2022-09-07T08:04:19.320Z,19.49
2022-09-07T08:09:21.073Z,19.71
2022-09-07T08:14:22.892Z,19.89
2022-09-07T08:19:26.196Z,20.06
2022-09-07T08:24:28.214Z,20.13
2022-09-07T08:29:33.495Z,20.41
2022-09-07T08:34:38.098Z,20.67
2022-09-07T08:39:39.813Z,20.87
2022-09-07T08:44:47.811Z,21.30
2022-09-07T08:49:55.531Z,21.80
2022-09-07T08:55:02.225Z,22.15
2022-09-07T09:00:07.702Z,22.07
2022-09-07T09:05:24.500Z,22.66
2022-09-07T09:10:34.622Z,22.65
2022-09-07T09:15:48.171Z,23.42
2022-09-07T09:20:54.588Z,23.94
2022-09-07T09:25:59.284Z,25.99
2022-09-07T09:31:01.497Z,27.21
2022-09-07T09:36:24.130Z,29.10
2022-09-07T09:41:36.243Z,30.08
2022-09-07T09:46:38.428Z,29.76
2022-09-07T10:07:57.816Z,24.45
2022-09-07T10:12:59.698Z,24.14
2022-09-07T10:18:03.437Z,24.02
2022-09-07T10:23:20.616Z,24.37
2022-09-07T10:28:24.254Z,24.23
2022-09-07T10:33:33.535Z,23.92
2022-09-07T10:38:43.040Z,23.84
2022-09-07T10:43:47.086Z,23.76
2022-09-07T10:49:02.148Z,23.77
2022-09-07T10:54:30.535Z,24.02
2022-09-07T11:05:18.564Z,24.08
2022-09-07T11:10:29.725Z,24.15
2022-09-07T11:15:35.572Z,24.39
2022-09-07T11:20:43.102Z,24.40
2022-09-07T11:25:54.633Z,24.66
2022-09-07T11:31:00.827Z,24.71
2022-09-07T11:36:12.043Z,24.78
2022-09-07T11:41:28.370Z,24.90
2022-09-07T11:46:36.747Z,24.83
2022-09-07T11:51:42.011Z,25.16
2022-09-07T11:56:52.241Z,25.38
2022-09-07T12:02:13.636Z,25.91
2022-09-07T12:07:39.308Z,25.66
2022-09-07T12:13:00.629Z,25.45
2022-09-07T12:18:13.991Z,25.15
2022-09-07T12:23:24.496Z,25.03
2022-09-07T12:28:59.785Z,25.23
2022-09-07T12:34:35.192Z,25.31
2022-09-07T12:39:38.431Z,25.75
2022-09-07T12:44:40.408Z,25.63
2022-09-07T12:50:20.398Z,25.85
2022-09-07T13:01:28.273Z,25.65
2022-09-07T13:07:04.064Z,26.09
2022-09-07T13:17:56.206Z,27.79
2022-09-07T13:23:17.974Z,27.75
2022-09-07T13:28:52.329Z,27.82
2022-09-07T13:33:54.315Z,27.26
2022-09-07T13:38:56.915Z,26.72
2022-09-07T13:44:03.162Z,26.96
2022-09-07T13:49:15.355Z,27.98
2022-09-07T13:54:25.911Z,27.79
2022-09-07T13:59:33.842Z,27.56
2022-09-07T14:04:41.815Z,27.53
2022-09-07T14:09:43.529Z,27.44
2022-09-07T14:14:47.011Z,27.80
2022-09-07T14:19:50.279Z,27.89
2022-09-07T14:24:54.387Z,28.07
2022-09-07T14:30:24.812Z,28.54
2022-09-07T14:35:28.715Z,28.55
2022-09-07T14:40:30.772Z,28.41
2022-09-07T14:45:35.078Z,27.95
2022-09-07T14:50:37.044Z,27.95
2022-09-07T14:55:40.829Z,28.23
2022-09-07T15:00:46.124Z,28.23
2022-09-07T15:05:48.798Z,27.70
2022-09-07T15:16:28.100Z,27.23
2022-09-07T15:21:32.292Z,27.45
2022-09-07T15:32:04.771Z,26.46
2022-09-07T15:38:00.968Z,26.31
2022-09-07T15:47:53.407Z,26.11
2022-09-07T15:52:55.291Z,25.99
2022-09-07T15:58:10.672Z,26.02
2022-09-07T16:03:15.279Z,25.89
2022-09-07T16:08:25.100Z,25.97
2022-09-07T16:13:31.497Z,25.69
2022-09-07T16:18:38.112Z,25.47
2022-09-07T16:23:42.469Z,25.29
2022-09-07T16:28:46.549Z,25.17
2022-09-07T16:33:49.702Z,25.03
2022-09-07T16:38:55.820Z,24.96
2022-09-07T16:43:58.300Z,24.99
2022-09-07T16:49:04.511Z,24.87
2022-09-07T16:54:08.974Z,24.65
2022-09-07T16:59:12.785Z,24.45
2022-09-07T17:04:15.998Z,24.32
2022-09-07T17:09:17.900Z,24.17
2022-09-07T17:14:19.890Z,24.11
2022-09-07T17:19:30.416Z,23.95
2022-09-07T17:24:32.728Z,23.63
2022-09-07T17:29:37.109Z,23.38
2022-09-07T17:34:41.049Z,23.05
2022-09-07T17:39:42.962Z,22.72
2022-09-07T17:44:46.318Z,22.35
2022-09-07T17:49:49.360Z,21.99
2022-09-07T17:54:51.081Z,21.67
2022-09-07T18:05:16.173Z,21.19
2022-09-07T18:10:18.535Z,21.16
2022-09-07T18:15:20.443Z,21.17
2022-09-07T18:20:24.572Z,21.36
2022-09-07T18:25:27.981Z,21.39
2022-09-07T18:30:29.787Z,21.59
2022-09-07T18:35:33.179Z,21.57
2022-09-07T18:40:38.405Z,21.49
2022-09-07T18:45:40.339Z,21.38
2022-09-07T18:50:43.395Z,21.10
2022-09-07T18:55:45.128Z,20.70
2022-09-07T19:00:47.602Z,20.75
2022-09-07T19:05:57.144Z,20.76
2022-09-07T19:11:06.912Z,20.85
2022-09-07T19:16:11.017Z,20.73
2022-09-07T19:21:16.939Z,20.73
2022-09-07T19:26:18.967Z,20.80
2022-09-07T19:31:21.560Z,20.71
2022-09-07T19:36:24.954Z,20.62
2022-09-07T19:41:27.936Z,20.70
2022-09-07T19:46:29.817Z,20.61
2022-09-07T19:51:36.737Z,20.52
2022-09-07T19:56:40.046Z,20.41
2022-09-07T20:01:41.859Z,20.40
2022-09-07T20:06:46.312Z,20.32
2022-09-07T20:11:48.567Z,20.39
2022-09-07T20:16:50.460Z,20.33
2022-09-07T20:21:53.762Z,20.22
2022-09-07T20:26:55.894Z,20.18
2022-09-07T20:31:59.088Z,20.08
2022-09-07T20:37:02.719Z,20.08
2022-09-07T20:42:05.112Z,20.03
2022-09-07T20:47:07.582Z,20.00
2022-09-07T20:52:11.017Z,19.93
2022-09-07T20:57:13.568Z,19.99
2022-09-07T21:02:16.734Z,20.00
2022-09-07T21:07:21.397Z,20.01
2022-09-07T21:12:25.317Z,19.86
2022-09-07T21:17:28.302Z,19.77
2022-09-07T21:22:33.258Z,19.54
2022-09-07T21:27:38.934Z,19.46
2022-09-07T21:32:41.678Z,19.45
2022-09-07T21:37:46.260Z,19.41
2022-09-07T21:42:51.525Z,19.45
2022-09-07T21:47:53.785Z,19.38
2022-09-07T21:52:58.056Z,19.20
2022-09-07T21:58:01.016Z,19.07
2022-09-07T22:03:03.958Z,18.94
2022-09-07T22:08:08.928Z,18.80
2022-09-07T22:13:12.785Z,18.69
2022-09-07T22:18:15.886Z,18.67
2022-09-07T22:23:20.363Z,18.58
2022-09-07T22:28:22.507Z,18.53
2022-09-07T22:33:25.184Z,18.42
2022-09-07T22:38:29.443Z,18.31
2022-09-07T22:43:31.478Z,18.24
2022-09-07T22:48:33.818Z,18.26
2022-09-07T22:53:40.707Z,18.27
2022-09-07T22:58:46.173Z,18.26
2022-09-07T23:03:49.564Z,18.18
2022-09-07T23:08:56.073Z,18.27
2022-09-07T23:14:02.383Z,18.22
2022-09-07T23:19:04.569Z,18.09
2022-09-07T23:24:12.039Z,18.02
2022-09-07T23:29:15.797Z,17.94
2022-09-07T23:34:18.209Z,17.91
2022-09-07T23:39:22.121Z,17.94
2022-09-07T23:44:24.468Z,17.86
2022-09-07T23:49:27.108Z,17.82
2022-09-07T23:54:31.266Z,17.68
2022-09-07T23:59:33.716Z,17.60
